createdAt,value
2018-05-14T00:02:25.202Z,2.03
2018-05-14T00:04:52.727Z,1.60
2018-05-14T00:07:20.676Z,1.07
2018-05-14T00:09:48.238Z,1.00
2018-05-14T00:12:15.834Z,1.23
2018-05-14T00:14:43.379Z,2.30
2018-05-14T00:17:11.189Z,1.07
2018-05-14T00:19:38.757Z,1.53
2018-05-14T00:22:06.300Z,1.30
2018-05-14T00:24:33.877Z,1.17
2018-05-14T00:27:01.413Z,1.00
2018-05-14T00:29:28.976Z,0.90
2018-05-14T00:31:56.549Z,1.17
2018-05-14T00:34:29.476Z,1.40
2018-05-14T00:36:57.037Z,1.00
2018-05-14T00:39:24.577Z,1.40
2018-05-14T00:41:52.127Z,8.33
2018-05-14T00:44:19.722Z,1.00
2018-05-14T00:46:47.250Z,1.00
2018-05-14T00:49:15.766Z,1.00
2018-05-14T00:51:43.277Z,1.00
2018-05-14T00:54:10.875Z,1.40
2018-05-14T00:56:38.415Z,0.93
2018-05-14T00:59:06.038Z,1.13
2018-05-14T01:01:33.573Z,2.80
2018-05-14T01:04:01.132Z,1.30
2018-05-14T01:06:28.700Z,1.40
2018-05-14T01:08:56.263Z,1.50
2018-05-14T01:11:23.840Z,1.60
2018-05-14T01:13:51.423Z,1.60
2018-05-14T01:16:19.006Z,2.80
2018-05-14T01:18:46.577Z,1.67
2018-05-14T01:21:14.089Z,1.87
2018-05-14T01:23:41.669Z,2.30
2018-05-14T01:26:09.233Z,1.90
2018-05-14T01:28:36.846Z,2.40
2018-05-14T01:31:04.477Z,1.87
2018-05-14T01:33:31.999Z,2.00
2018-05-14T01:35:59.568Z,2.30
2018-05-14T01:38:27.117Z,2.07
2018-05-14T01:40:54.748Z,1.87
2018-05-14T01:43:22.305Z,2.03
2018-05-14T01:45:50.269Z,2.50
2018-05-14T01:48:17.805Z,1.80
2018-05-14T01:50:45.376Z,1.53
2018-05-14T01:53:12.943Z,2.30
2018-05-14T01:55:40.475Z,1.97
2018-05-14T01:58:08.039Z,1.93
2018-05-14T02:00:35.623Z,1.93
2018-05-14T02:03:03.179Z,2.17
2018-05-14T02:05:34.893Z,1.83
2018-05-14T02:08:02.822Z,2.30
2018-05-14T02:10:30.394Z,2.63
2018-05-14T02:12:57.943Z,1.90
2018-05-14T02:15:25.497Z,1.77
2018-05-14T02:17:53.047Z,1.70
2018-05-14T02:20:20.620Z,1.80
2018-05-14T02:22:48.192Z,1.93
2018-05-14T02:25:15.762Z,2.00
2018-05-14T02:27:43.307Z,3.43
2018-05-14T02:30:10.890Z,1.90
2018-05-14T02:32:42.391Z,2.63
2018-05-14T02:35:09.975Z,2.67
2018-05-14T02:37:37.513Z,2.27
2018-05-14T02:40:05.138Z,1.90
2018-05-14T02:42:32.651Z,1.80
2018-05-14T02:45:00.252Z,1.90
2018-05-14T02:47:27.868Z,2.10
2018-05-14T02:49:55.499Z,1.77
2018-05-14T02:52:23.082Z,2.10
2018-05-14T02:54:50.673Z,1.90
2018-05-14T02:57:18.203Z,1.70
2018-05-14T02:59:45.787Z,1.90
2018-05-14T03:02:13.411Z,2.00
2018-05-14T03:04:41.036Z,2.00
2018-05-14T03:07:08.627Z,1.97
2018-05-14T03:09:36.167Z,2.40
2018-05-14T03:12:05.098Z,1.80
2018-05-14T03:14:32.670Z,2.50
2018-05-14T03:17:00.231Z,1.70
2018-05-14T03:19:27.809Z,2.10
2018-05-14T03:21:55.387Z,2.03
2018-05-14T03:24:22.951Z,2.77
2018-05-14T03:26:50.549Z,2.13
2018-05-14T03:29:18.094Z,2.00
2018-05-14T03:31:45.681Z,2.63
2018-05-14T03:34:13.247Z,1.90
2018-05-14T03:36:40.856Z,2.00
2018-05-14T03:39:08.404Z,2.13
2018-05-14T03:41:36.402Z,1.90
2018-05-14T03:44:03.987Z,1.83
2018-05-14T03:46:31.570Z,2.00
2018-05-14T03:48:59.144Z,1.50
2018-05-14T03:51:26.765Z,2.03
2018-05-14T03:53:54.306Z,2.07
2018-05-14T03:56:21.884Z,1.67
2018-05-14T03:59:01.300Z,1.90
2018-05-14T04:01:40.603Z,2.13
2018-05-14T04:04:19.867Z,1.70
2018-05-14T04:06:47.471Z,1.70
2018-05-14T04:09:15.081Z,2.50
2018-05-14T04:11:42.656Z,1.53
2018-05-14T04:14:11.033Z,2.27
2018-05-14T04:16:38.649Z,1.70
2018-05-14T04:19:06.172Z,1.93
2018-05-14T04:21:33.774Z,1.50
2018-05-14T04:24:01.337Z,1.70
2018-05-14T04:26:28.909Z,1.30
2018-05-14T04:28:56.430Z,1.63
2018-05-14T04:31:23.993Z,1.63
2018-05-14T04:33:51.563Z,2.00
2018-05-14T04:36:19.123Z,1.63
2018-05-14T04:38:46.670Z,1.83
2018-05-14T04:41:14.296Z,1.83
2018-05-14T04:43:41.827Z,1.70
2018-05-14T04:46:09.406Z,2.00
2018-05-14T04:48:36.959Z,1.73
2018-05-14T04:51:04.503Z,1.80
2018-05-14T04:53:32.048Z,1.80
2018-05-14T04:55:59.600Z,1.83
2018-05-14T04:58:27.188Z,1.97
2018-05-14T05:00:54.768Z,3.00
2018-05-14T05:03:22.362Z,1.53
2018-05-14T05:06:04.903Z,1.90
2018-05-14T05:08:32.493Z,1.90
2018-05-14T05:11:00.051Z,3.33
2018-05-14T05:13:28.023Z,2.33
2018-05-14T05:15:55.577Z,2.17
2018-05-14T05:18:23.180Z,2.80
2018-05-14T05:20:50.724Z,2.17
2018-05-14T05:23:18.310Z,4.17
2018-05-14T05:25:45.867Z,2.30
2018-05-14T05:28:13.441Z,3.70
2018-05-14T05:30:41.027Z,2.20
2018-05-14T05:33:08.570Z,2.23
2018-05-14T05:35:36.097Z,2.47
2018-05-14T05:38:03.739Z,2.70
2018-05-14T05:40:31.236Z,2.50
2018-05-14T05:42:58.839Z,5.00
2018-05-14T05:45:26.481Z,2.57
2018-05-14T05:47:54.052Z,2.40
2018-05-14T05:50:21.661Z,2.23
2018-05-14T05:52:49.222Z,2.40
2018-05-14T05:55:16.792Z,2.93
2018-05-14T05:57:44.427Z,2.67
2018-05-14T06:00:11.970Z,2.60
2018-05-14T06:02:39.548Z,2.70
2018-05-14T06:05:07.104Z,2.80
2018-05-14T06:07:34.681Z,3.20
2018-05-14T06:10:02.206Z,3.17
2018-05-14T06:12:29.809Z,3.40
2018-05-14T06:14:57.398Z,4.33
2018-05-14T06:17:25.024Z,3.43
2018-05-14T06:19:52.610Z,4.23
2018-05-14T06:22:20.598Z,4.23
2018-05-14T06:24:48.123Z,4.40
2018-05-14T06:27:15.692Z,3.23
2018-05-14T06:29:43.661Z,3.87
2018-05-14T06:32:11.679Z,3.93
2018-05-14T06:34:39.365Z,4.67
2018-05-14T06:37:10.892Z,5.00
2018-05-14T06:39:38.447Z,4.30
2018-05-14T06:42:05.984Z,3.97
2018-05-14T06:44:33.563Z,4.70
2018-05-14T06:47:01.102Z,4.33
2018-05-14T06:49:28.690Z,4.97
2018-05-14T06:51:56.269Z,4.60
2018-05-14T06:54:23.836Z,4.80
2018-05-14T06:56:51.375Z,4.97
2018-05-14T06:59:24.769Z,4.73
2018-05-14T07:01:52.277Z,4.80
2018-05-14T07:04:19.826Z,5.10
2018-05-14T07:06:47.375Z,5.00
2018-05-14T07:09:14.922Z,4.77
2018-05-14T07:11:45.697Z,5.20
2018-05-14T07:14:13.556Z,5.03
2018-05-14T07:16:41.670Z,5.77
2018-05-14T07:19:09.194Z,5.90
2018-05-14T07:21:36.721Z,5.50
2018-05-14T07:24:15.528Z,5.50
2018-05-14T07:26:43.151Z,5.47
2018-05-14T07:29:10.696Z,5.83
2018-05-14T07:31:38.241Z,4.80
2018-05-14T07:34:05.823Z,4.23
2018-05-14T07:36:33.418Z,4.13
2018-05-14T07:39:01.039Z,4.07
2018-05-14T07:41:28.583Z,5.00
2018-05-14T07:43:56.168Z,4.93
2018-05-14T07:46:23.731Z,4.90
2018-05-14T07:48:51.334Z,4.60
2018-05-14T07:51:18.900Z,3.90
2018-05-14T07:53:46.510Z,4.03
2018-05-14T07:56:14.050Z,4.60
2018-05-14T07:58:41.606Z,3.93
2018-05-14T08:01:09.175Z,4.13
2018-05-14T08:03:36.750Z,3.77
2018-05-14T08:06:04.280Z,3.57
2018-05-14T08:08:31.830Z,3.20
2018-05-14T08:11:05.346Z,3.47
2018-05-14T08:13:32.905Z,2.50
2018-05-14T08:16:02.578Z,2.60
2018-05-14T08:18:30.106Z,2.83
2018-05-14T08:20:57.697Z,2.50
2018-05-14T08:23:25.366Z,3.00
2018-05-14T08:25:52.889Z,5.50
2018-05-14T08:28:20.468Z,2.70
2018-05-14T08:30:48.039Z,2.20
2018-05-14T08:33:15.602Z,2.20
2018-05-14T08:35:43.210Z,2.53
2018-05-14T08:38:10.763Z,2.37
2018-05-14T08:40:39.309Z,2.53
2018-05-14T08:43:06.874Z,2.80
2018-05-14T08:45:34.459Z,2.53
2018-05-14T08:48:02.089Z,2.50
2018-05-14T08:50:30.059Z,3.03
2018-05-14T08:52:57.992Z,2.70
2018-05-14T08:55:25.580Z,2.97
2018-05-14T08:57:53.129Z,3.43
2018-05-14T09:00:20.708Z,3.17
2018-05-14T09:02:48.234Z,3.53
2018-05-14T09:05:15.779Z,3.60
2018-05-14T09:07:43.366Z,3.63
2018-05-14T09:10:10.915Z,3.83
2018-05-14T09:12:38.483Z,3.47
2018-05-14T09:15:06.035Z,3.77
2018-05-14T09:17:33.589Z,3.60
2018-05-14T09:20:01.155Z,3.00
2018-05-14T09:22:28.687Z,3.60
2018-05-14T09:24:56.247Z,3.90
2018-05-14T09:27:23.820Z,3.87
2018-05-14T09:29:51.411Z,4.10
2018-05-14T09:32:19.048Z,3.80
2018-05-14T09:34:48.521Z,3.43
2018-05-14T09:37:16.073Z,3.40
2018-05-14T09:39:43.652Z,4.67
2018-05-14T09:42:11.187Z,4.27
2018-05-14T09:44:38.798Z,3.97
2018-05-14T09:47:06.326Z,3.83
2018-05-14T09:49:33.888Z,4.13
2018-05-14T09:52:01.463Z,4.90
2018-05-14T09:54:28.993Z,4.23
2018-05-14T09:56:56.539Z,3.70
2018-05-14T09:59:24.158Z,3.60
2018-05-14T10:01:51.781Z,3.40
2018-05-14T10:04:19.335Z,3.63
2018-05-14T10:06:46.911Z,3.47
2018-05-14T10:09:14.472Z,3.93
2018-05-14T10:11:42.043Z,4.40
2018-05-14T10:14:09.598Z,4.13
2018-05-14T10:16:37.259Z,4.10
2018-05-14T10:19:04.803Z,4.57
2018-05-14T10:21:32.347Z,5.20
2018-05-14T10:23:59.910Z,5.17
2018-05-14T10:26:27.468Z,5.47
2018-05-14T10:28:55.008Z,5.00
2018-05-14T10:31:22.597Z,5.83
2018-05-14T10:33:50.152Z,5.20
2018-05-14T10:36:17.734Z,5.63
2018-05-14T10:38:45.310Z,4.50
2018-05-14T10:41:12.905Z,5.40
2018-05-14T10:43:40.434Z,6.47
2018-05-14T10:46:08.044Z,6.27
2018-05-14T10:48:35.584Z,5.30
2018-05-14T10:51:03.156Z,5.90
2018-05-14T10:53:30.739Z,6.13
2018-05-14T10:55:58.327Z,7.50
2018-05-14T10:58:25.905Z,6.10
2018-05-14T11:00:53.510Z,5.80
2018-05-14T11:03:21.046Z,5.80
2018-05-14T11:05:48.615Z,6.17
2018-05-14T11:08:16.183Z,5.30
2018-05-14T11:10:43.739Z,5.57
2018-05-14T11:13:11.285Z,6.50
2018-05-14T11:15:38.851Z,5.53
2018-05-14T11:18:06.486Z,6.40
2018-05-14T11:20:34.063Z,6.93
2018-05-14T11:23:01.608Z,6.00
2018-05-14T11:25:29.143Z,7.13
2018-05-14T11:27:56.852Z,7.30
2018-05-14T11:30:24.323Z,10.53
2018-05-14T11:32:52.022Z,7.57
2018-05-14T11:35:19.610Z,6.83
2018-05-14T11:37:47.224Z,6.87
2018-05-14T11:40:15.210Z,8.07
2018-05-14T11:42:42.788Z,10.63
2018-05-14T11:45:10.351Z,7.43
2018-05-14T11:47:37.976Z,9.10
2018-05-14T11:50:05.530Z,10.67
2018-05-14T11:52:33.478Z,7.87
2018-05-14T11:55:01.012Z,9.30
2018-05-14T11:57:28.646Z,10.10
2018-05-14T11:59:56.213Z,10.90
2018-05-14T12:02:27.644Z,9.80
2018-05-14T12:04:58.651Z,10.93
2018-05-14T12:07:26.257Z,11.53
2018-05-14T12:09:55.923Z,11.73
2018-05-14T12:12:24.006Z,10.30
2018-05-14T12:15:15.780Z,10.83
2018-05-14T12:17:43.531Z,9.77
2018-05-14T12:20:11.214Z,10.77
2018-05-14T12:22:38.762Z,14.13
2018-05-14T12:25:10.044Z,11.97
2018-05-14T12:27:37.990Z,14.23
2018-05-14T12:30:05.575Z,13.17
2018-05-14T12:32:34.478Z,14.67
2018-05-14T12:35:02.254Z,11.50
2018-05-14T12:37:29.899Z,10.83
2018-05-14T12:39:57.411Z,13.10
2018-05-14T12:42:25.452Z,14.57
2018-05-14T12:44:57.051Z,14.83
2018-05-14T12:47:26.705Z,13.70
2018-05-14T12:49:54.246Z,14.47
2018-05-14T12:52:21.870Z,14.00
2018-05-14T12:54:49.434Z,15.33
2018-05-14T12:57:17.097Z,13.10
2018-05-14T12:59:44.651Z,12.23
2018-05-14T13:02:12.251Z,13.63
2018-05-14T13:04:39.829Z,14.60
2018-05-14T13:07:07.492Z,13.17
2018-05-14T13:09:35.064Z,11.60
2018-05-14T13:12:02.648Z,10.67
2018-05-14T13:14:30.498Z,13.93
2018-05-14T13:16:58.142Z,12.30
2018-05-14T13:19:25.749Z,12.43
2018-05-14T13:21:53.321Z,12.97
2018-05-14T13:24:20.900Z,13.43
2018-05-14T13:27:02.604Z,12.00
2018-05-14T13:29:30.182Z,14.77
2018-05-14T13:31:57.828Z,15.93
2018-05-14T13:34:34.024Z,13.50
2018-05-14T13:37:01.566Z,18.93
2018-05-14T13:39:29.170Z,13.10
2018-05-14T13:41:56.744Z,16.63
2018-05-14T13:44:24.383Z,16.37
2018-05-14T13:46:51.891Z,16.47
2018-05-14T13:49:19.480Z,18.20
2018-05-14T13:51:54.462Z,15.77
2018-05-14T13:54:22.056Z,17.17
2018-05-14T13:56:49.694Z,15.67
2018-05-14T13:59:17.327Z,16.90
2018-05-14T14:01:44.881Z,19.63
2018-05-14T14:04:12.482Z,17.20
2018-05-14T14:06:40.104Z,20.40
2018-05-14T14:09:07.682Z,16.53
2018-05-14T14:11:35.244Z,17.50
2018-05-14T14:14:17.857Z,20.33
2018-05-14T14:16:45.406Z,14.77
2018-05-14T14:19:12.959Z,17.77
2018-05-14T14:21:40.534Z,18.00
2018-05-14T14:24:08.225Z,13.60
2018-05-14T14:26:35.699Z,13.90
2018-05-14T14:29:03.277Z,14.97
2018-05-14T14:31:30.834Z,14.40
2018-05-14T14:33:58.423Z,16.37
2018-05-14T14:36:26.022Z,18.60
2018-05-14T14:38:53.571Z,17.57
2018-05-14T14:41:21.137Z,16.40
2018-05-14T14:43:48.717Z,15.83
2018-05-14T14:46:16.349Z,18.67
2018-05-14T14:48:48.395Z,14.90
2018-05-14T14:51:15.958Z,17.67
2018-05-14T14:53:43.610Z,17.80
2018-05-14T14:56:11.274Z,18.23
2018-05-14T14:58:38.875Z,19.17
2018-05-14T15:01:06.455Z,15.40
2018-05-14T15:03:34.047Z,17.47
2018-05-14T15:06:01.600Z,16.43
2018-05-14T15:08:29.177Z,25.00
2018-05-14T15:10:56.810Z,18.77
2018-05-14T15:13:24.491Z,18.13
2018-05-14T15:15:52.022Z,19.50
2018-05-14T15:18:19.664Z,18.73
2018-05-14T15:20:47.279Z,17.33
2018-05-14T15:23:15.594Z,21.90
2018-05-14T15:25:43.328Z,22.00
2018-05-14T15:28:10.872Z,17.00
2018-05-14T15:30:38.638Z,18.37
2018-05-14T15:33:06.206Z,19.53
2018-05-14T15:35:33.838Z,17.80
2018-05-14T15:38:01.431Z,19.57
2018-05-14T15:40:29.046Z,18.00
2018-05-14T15:42:56.593Z,19.67
2018-05-14T15:45:24.578Z,24.47
2018-05-14T15:47:52.162Z,17.27
2018-05-14T15:50:19.790Z,19.67
2018-05-14T15:52:47.359Z,22.43
2018-05-14T15:55:15.023Z,22.80
2018-05-14T15:57:42.621Z,20.77
2018-05-14T16:00:10.186Z,20.97
2018-05-14T16:02:38.171Z,23.73
2018-05-14T16:05:05.807Z,26.43
2018-05-14T16:07:33.762Z,25.73
2018-05-14T16:10:01.402Z,22.77
2018-05-14T16:12:29.347Z,20.30
2018-05-14T16:14:57.119Z,22.23
2018-05-14T16:17:25.152Z,20.80
2018-05-14T16:19:52.820Z,22.17
2018-05-14T16:22:20.439Z,24.37
2018-05-14T16:24:48.069Z,23.83
2018-05-14T16:27:15.653Z,21.73
2018-05-14T16:29:43.251Z,25.33
2018-05-14T16:32:10.786Z,25.40
2018-05-14T16:34:38.769Z,31.00
2018-05-14T16:37:06.355Z,30.50
2018-05-14T16:39:33.947Z,31.83
2018-05-14T16:42:01.559Z,29.07
2018-05-14T16:44:29.120Z,35.23
2018-05-14T16:46:57.030Z,35.10
2018-05-14T16:49:24.666Z,30.20
2018-05-14T16:51:52.504Z,27.00
2018-05-14T16:54:20.083Z,30.23
2018-05-14T16:56:47.845Z,33.87
2018-05-14T16:59:16.418Z,31.40
2018-05-14T17:01:44.312Z,31.07
2018-05-14T17:04:12.039Z,26.70
2018-05-14T17:06:39.541Z,32.87
2018-05-14T17:09:07.151Z,27.37
2018-05-14T17:11:34.752Z,28.60
2018-05-14T17:14:02.586Z,32.60
2018-05-14T17:16:30.238Z,26.53
2018-05-14T17:18:57.804Z,27.87
2018-05-14T17:21:25.449Z,22.33
2018-05-14T17:23:53.498Z,26.43
2018-05-14T17:26:21.148Z,22.57
2018-05-14T17:28:48.798Z,20.90
2018-05-14T17:31:16.768Z,22.47
2018-05-14T17:33:45.082Z,18.73
2018-05-14T17:36:12.721Z,18.20
2018-05-14T17:38:40.752Z,18.10
2018-05-14T17:41:08.404Z,17.57
2018-05-14T17:43:36.008Z,18.67
2018-05-14T17:46:04.425Z,22.23
2018-05-14T17:48:32.425Z,22.27
2018-05-14T17:51:00.063Z,15.30
2018-05-14T17:53:27.633Z,18.07
2018-05-14T17:55:55.184Z,20.07
2018-05-14T17:58:22.747Z,18.43
2018-05-14T18:00:50.648Z,20.83
2018-05-14T18:03:18.327Z,20.80
2018-05-14T18:05:46.518Z,17.77
2018-05-14T18:08:14.054Z,17.63
2018-05-14T18:10:41.681Z,18.23
2018-05-14T18:13:09.219Z,16.67
2018-05-14T18:15:37.196Z,21.50
2018-05-14T18:18:05.168Z,21.33
2018-05-14T18:20:32.727Z,23.50
2018-05-14T18:23:00.364Z,23.33
2018-05-14T18:25:33.671Z,18.53
2018-05-14T18:28:01.645Z,22.67
2018-05-14T18:30:29.287Z,21.53
2018-05-14T18:33:02.608Z,22.93
2018-05-14T18:35:35.878Z,20.47
2018-05-14T18:38:03.811Z,17.77
2018-05-14T18:40:31.386Z,19.37
2018-05-14T18:42:59.001Z,21.77
2018-05-14T18:45:26.868Z,18.47
2018-05-14T18:47:54.864Z,21.83
2018-05-14T18:50:22.571Z,20.67
2018-05-14T18:52:50.158Z,20.63
2018-05-14T18:55:18.162Z,21.53
2018-05-14T18:57:46.206Z,19.83
2018-05-14T19:00:13.789Z,21.50
2018-05-14T19:02:41.472Z,22.50
2018-05-14T19:05:09.139Z,22.47
2018-05-14T19:07:36.859Z,21.80
2018-05-14T19:13:05.644Z,15.53
2018-05-14T19:15:38.887Z,14.60
2018-05-14T19:18:06.575Z,18.07
2018-05-14T19:20:34.205Z,15.97
2018-05-14T19:23:07.588Z,13.83
2018-05-14T19:25:35.995Z,13.97
2018-05-14T19:28:09.234Z,14.87
2018-05-14T19:30:36.985Z,33.43
2018-05-14T19:33:04.589Z,35.33
2018-05-14T19:35:52.192Z,33.07
2018-05-14T19:38:19.860Z,22.90
2018-05-14T19:40:51.560Z,16.70
2018-05-14T19:43:19.317Z,14.97
2018-05-14T19:45:46.911Z,14.43
2018-05-14T19:48:14.975Z,17.93
2018-05-14T19:50:42.999Z,15.17
2018-05-14T19:53:10.601Z,18.17
2018-05-14T19:55:38.587Z,19.07
2018-05-14T19:58:06.348Z,22.47
2018-05-14T20:00:34.049Z,20.40
2018-05-14T20:03:01.740Z,22.43
2018-05-14T20:05:29.387Z,20.80
2018-05-14T20:07:56.978Z,23.60
2018-05-14T20:10:24.631Z,25.30
2018-05-14T20:12:52.222Z,21.37
2018-05-14T20:15:19.819Z,23.30
2018-05-14T20:17:47.483Z,30.97
2018-05-14T20:20:15.468Z,22.30
2018-05-14T20:22:42.985Z,20.03
2018-05-14T20:25:10.699Z,21.03
2018-05-14T20:27:38.687Z,21.00
2018-05-14T20:30:06.296Z,21.70
2018-05-14T20:32:34.323Z,23.40
2018-05-14T20:35:01.950Z,21.23
2018-05-14T20:37:29.578Z,19.70
2018-05-14T20:39:57.156Z,21.90
2018-05-14T20:42:25.414Z,21.67
2018-05-14T20:44:53.052Z,17.27
2018-05-14T20:47:20.641Z,19.73
2018-05-14T20:49:48.229Z,18.47
2018-05-14T20:52:16.198Z,17.53
2018-05-14T20:54:43.790Z,17.37
2018-05-14T20:57:11.382Z,19.63
2018-05-14T20:59:38.996Z,25.17
2018-05-14T21:02:06.581Z,24.10
2018-05-14T21:04:34.144Z,19.77
2018-05-14T21:07:01.730Z,23.00
2018-05-14T21:09:29.453Z,25.50
2018-05-14T21:11:56.991Z,26.97
2018-05-14T21:14:24.562Z,25.53
2018-05-14T21:16:52.124Z,25.23
2018-05-14T21:19:19.743Z,30.33
2018-05-14T21:21:47.717Z,24.13
2018-05-14T21:24:15.319Z,31.33
2018-05-14T21:26:42.862Z,24.87
2018-05-14T21:29:10.513Z,26.97
2018-05-14T21:31:38.086Z,23.17
2018-05-14T21:34:05.693Z,19.50
2018-05-14T21:36:33.263Z,20.57
2018-05-14T21:39:00.916Z,20.60
2018-05-14T21:41:28.525Z,23.20
2018-05-14T21:43:56.127Z,18.00
2018-05-14T21:46:23.702Z,19.60
2018-05-14T21:48:51.273Z,20.83
2018-05-14T21:51:18.822Z,21.77
2018-05-14T21:53:46.823Z,19.03
2018-05-14T21:56:14.414Z,22.83
2018-05-14T21:58:41.985Z,22.83
2018-05-14T22:01:09.651Z,18.37
2018-05-14T22:03:37.251Z,18.33
2018-05-14T22:06:04.882Z,20.60
2018-05-14T22:08:32.469Z,19.83
2018-05-14T22:11:00.063Z,19.20
2018-05-14T22:13:27.650Z,16.90
2018-05-14T22:15:55.274Z,15.90
2018-05-14T22:18:22.938Z,13.80
2018-05-14T22:20:50.545Z,17.30
2018-05-14T22:23:18.192Z,21.47
2018-05-14T22:25:45.812Z,18.13
2018-05-14T22:28:13.405Z,14.03
2018-05-14T22:30:41.001Z,17.57
2018-05-14T22:33:08.588Z,22.37
2018-05-14T22:35:36.203Z,26.27
2018-05-14T22:38:04.200Z,18.30
2018-05-14T22:40:31.827Z,25.17
2018-05-14T22:42:59.383Z,19.53
2018-05-14T22:45:26.974Z,21.63
2018-05-14T22:47:54.547Z,26.30
2018-05-14T22:50:22.149Z,20.73
2018-05-14T22:52:49.713Z,25.50
2018-05-14T22:55:17.366Z,24.10
2018-05-14T22:57:45.011Z,23.27
2018-05-14T23:00:13.350Z,26.63
2018-05-14T23:02:40.949Z,20.20
2018-05-14T23:05:08.574Z,20.50
2018-05-14T23:07:36.174Z,28.23
2018-05-14T23:10:03.768Z,21.57
2018-05-14T23:12:31.361Z,17.87
2018-05-14T23:14:59.035Z,20.40
2018-05-14T23:17:26.617Z,14.60
2018-05-14T23:19:54.247Z,19.70
2018-05-14T23:22:21.817Z,34.23
2018-05-14T23:24:49.470Z,18.23
2018-05-14T23:27:17.039Z,20.97
2018-05-14T23:29:44.668Z,26.17
2018-05-14T23:32:12.267Z,21.57
2018-05-14T23:34:39.881Z,20.73
2018-05-14T23:37:07.526Z,36.17
2018-05-14T23:39:35.116Z,67.63
2018-05-14T23:42:02.754Z,16.33
2018-05-14T23:44:30.312Z,15.30
2018-05-14T23:46:57.887Z,30.30
2018-05-14T23:49:25.499Z,26.43
2018-05-14T23:51:53.128Z,17.83
2018-05-14T23:54:20.690Z,20.93
2018-05-14T23:56:48.476Z,23.30
2018-05-14T23:59:16.093Z,18.40
